createdAt,value
2019-03-03T00:00:35.287Z,1007.50
2019-03-03T00:01:20.182Z,1007.49
2019-03-03T00:02:20.786Z,1007.44
2019-03-03T00:03:20.111Z,1007.44
2019-03-03T00:04:20.084Z,1007.42
2019-03-03T00:05:20.073Z,1007.37
2019-03-03T00:06:20.799Z,1007.35
2019-03-03T00:07:19.992Z,1007.34
2019-03-03T00:08:19.955Z,1007.36
2019-03-03T00:09:19.917Z,1007.30
2019-03-03T00:10:19.905Z,1007.29
2019-03-03T00:11:19.850Z,1007.23
2019-03-03T00:12:19.818Z,1007.21
2019-03-03T00:13:19.790Z,1007.22
2019-03-03T00:14:19.767Z,1007.19
2019-03-03T00:15:19.727Z,1007.20
2019-03-03T00:16:19.723Z,1007.18
2019-03-03T00:17:19.662Z,1007.16
2019-03-03T00:18:20.286Z,1007.21
2019-03-03T00:19:20.685Z,1007.17
2019-03-03T00:20:19.564Z,1007.16
2019-03-03T00:21:19.564Z,1007.10
2019-03-03T00:22:20.286Z,1007.12
2019-03-03T00:23:19.476Z,1007.11
2019-03-03T00:24:19.431Z,1007.12
2019-03-03T00:25:19.398Z,1007.10
2019-03-03T00:26:19.415Z,1007.11
2019-03-03T00:27:19.379Z,1007.12
2019-03-03T00:28:19.324Z,1007.08
2019-03-03T00:29:19.262Z,1007.09
2019-03-03T00:30:19.235Z,1007.06
2019-03-03T00:31:19.230Z,1007.08
2019-03-03T00:32:19.178Z,1007.07
2019-03-03T00:33:19.138Z,1007.03
2019-03-03T00:34:19.106Z,1007.06
2019-03-03T00:35:19.074Z,1007.05
2019-03-03T00:36:19.084Z,1007.02
2019-03-03T00:37:19.786Z,1007.02
2019-03-03T00:38:18.972Z,1007.01
2019-03-03T00:39:18.969Z,1007.01
2019-03-03T00:40:18.912Z,1006.99
2019-03-03T00:41:18.919Z,1006.97
2019-03-03T00:42:18.850Z,1006.97
2019-03-03T00:43:19.795Z,1006.97
2019-03-03T00:44:18.792Z,1006.97
2019-03-03T00:45:18.754Z,1006.95
2019-03-03T00:46:18.764Z,1006.94
2019-03-03T00:47:18.698Z,1006.93
2019-03-03T00:48:18.651Z,1006.85
2019-03-03T00:49:18.655Z,1006.84
2019-03-03T00:50:18.590Z,1006.86
2019-03-03T00:51:18.580Z,1006.87
2019-03-03T00:52:18.525Z,1006.88
2019-03-03T00:53:19.289Z,1006.90
2019-03-03T00:54:18.464Z,1006.87
2019-03-03T00:55:18.431Z,1006.90
2019-03-03T00:56:18.415Z,1006.85
2019-03-03T00:57:18.385Z,1006.83
2019-03-03T00:58:18.342Z,1006.86
2019-03-03T00:59:18.303Z,1006.80
2019-03-03T01:00:18.304Z,1006.84
2019-03-03T01:01:18.844Z,1006.86
2019-03-03T01:02:18.246Z,1006.87
2019-03-03T01:03:18.714Z,1006.87
2019-03-03T01:04:21.691Z,1006.85
2019-03-03T01:05:18.792Z,1006.85
2019-03-03T01:06:18.231Z,1006.86
2019-03-03T01:07:18.041Z,1006.85
2019-03-03T01:08:18.008Z,1006.84
2019-03-03T01:09:17.972Z,1006.84
2019-03-03T01:10:17.943Z,1006.82
2019-03-03T01:11:17.925Z,1006.79
2019-03-03T01:12:17.900Z,1006.81
2019-03-03T01:13:17.851Z,1006.83
2019-03-03T01:14:17.817Z,1006.82
2019-03-03T01:15:17.874Z,1006.80
2019-03-03T01:16:17.758Z,1006.81
2019-03-03T01:17:17.761Z,1006.81
2019-03-03T01:18:18.306Z,1006.78
2019-03-03T01:19:17.654Z,1006.77
2019-03-03T01:20:17.621Z,1006.78
2019-03-03T01:21:17.603Z,1006.75
2019-03-03T01:22:17.587Z,1006.76
2019-03-03T01:23:18.355Z,1006.81
2019-03-03T01:24:18.295Z,1006.78
2019-03-03T01:25:17.461Z,1006.78
2019-03-03T01:26:18.393Z,1006.76
2019-03-03T01:27:17.425Z,1006.74
2019-03-03T01:28:17.359Z,1006.73
2019-03-03T01:29:17.334Z,1006.73
2019-03-03T01:30:17.304Z,1006.74
2019-03-03T01:31:17.269Z,1006.72
2019-03-03T01:32:17.269Z,1006.72
2019-03-03T01:33:17.215Z,1006.73
2019-03-03T01:34:17.801Z,1006.69
2019-03-03T01:35:17.148Z,1006.69
2019-03-03T01:36:17.104Z,1006.64
2019-03-03T01:37:17.107Z,1006.60
2019-03-03T01:38:17.059Z,1006.62
2019-03-03T01:39:17.009Z,1006.61
2019-03-03T01:40:16.980Z,1006.58
2019-03-03T01:41:16.943Z,1006.54
2019-03-03T01:42:16.926Z,1006.55
2019-03-03T01:43:16.943Z,1006.51
2019-03-03T01:44:16.853Z,1006.49
2019-03-03T01:45:16.817Z,1006.45
2019-03-03T01:46:16.783Z,1006.44
2019-03-03T01:47:16.748Z,1006.43
2019-03-03T01:48:16.749Z,1006.40
2019-03-03T01:49:16.725Z,1006.36
2019-03-03T01:50:16.658Z,1006.36
2019-03-03T01:51:16.629Z,1006.39
2019-03-03T01:52:16.594Z,1006.39
2019-03-03T01:53:16.596Z,1006.31
2019-03-03T01:54:16.531Z,1006.33
2019-03-03T01:55:16.507Z,1006.32
2019-03-03T01:56:16.461Z,1006.30
2019-03-03T01:57:16.440Z,1006.30
2019-03-03T01:58:16.437Z,1006.26
2019-03-03T01:59:16.369Z,1006.28
2019-03-03T02:00:16.341Z,1006.30
2019-03-03T02:01:16.301Z,1006.30
2019-03-03T02:02:16.271Z,1006.30
2019-03-03T02:03:16.259Z,1006.32
2019-03-03T02:04:16.797Z,1006.32
2019-03-03T02:05:16.168Z,1006.33
2019-03-03T02:06:16.148Z,1006.30
2019-03-03T02:07:16.124Z,1006.28
2019-03-03T02:08:16.105Z,1006.32
2019-03-03T02:09:16.046Z,1006.27
2019-03-03T02:10:16.012Z,1006.29
2019-03-03T02:11:15.982Z,1006.29
2019-03-03T02:12:15.944Z,1006.26
2019-03-03T02:13:15.938Z,1006.25
2019-03-03T02:14:15.878Z,1006.20
2019-03-03T02:15:15.849Z,1006.23
2019-03-03T02:16:15.814Z,1006.21
2019-03-03T02:17:15.791Z,1006.18
2019-03-03T02:18:15.803Z,1006.17
2019-03-03T02:19:15.772Z,1006.16
2019-03-03T02:20:15.686Z,1006.13
2019-03-03T02:21:15.660Z,1006.16
2019-03-03T02:22:15.633Z,1006.14
2019-03-03T02:23:15.594Z,1006.09
2019-03-03T02:24:15.591Z,1006.15
2019-03-03T02:25:15.539Z,1006.11
2019-03-03T02:26:15.499Z,1006.17
2019-03-03T02:27:15.467Z,1006.13
2019-03-03T02:28:15.429Z,1006.12
2019-03-03T02:29:15.517Z,1006.08
2019-03-03T02:30:15.393Z,1006.07
2019-03-03T02:31:15.353Z,1006.10
2019-03-03T02:32:15.326Z,1006.06
2019-03-03T02:33:15.276Z,1006.03
2019-03-03T02:34:16.216Z,1006.01
2019-03-03T02:35:15.212Z,1006.04
2019-03-03T02:36:15.203Z,1006.02
2019-03-03T02:37:15.142Z,1005.99
2019-03-03T02:38:15.119Z,1006.01
2019-03-03T02:39:15.339Z,1006.04
2019-03-03T02:40:15.047Z,1005.99
2019-03-03T02:41:15.019Z,1005.98
2019-03-03T02:42:14.991Z,1006.00
2019-03-03T02:43:14.967Z,1005.96
2019-03-03T02:44:14.950Z,1005.99
2019-03-03T02:45:15.810Z,1005.98
2019-03-03T02:46:14.864Z,1005.99
2019-03-03T02:47:15.805Z,1006.01
2019-03-03T02:48:14.788Z,1005.99
2019-03-03T02:49:14.795Z,1006.03
2019-03-03T02:50:14.734Z,1006.04
2019-03-03T02:51:15.318Z,1006.06
2019-03-03T02:52:14.661Z,1006.01
2019-03-03T02:53:14.632Z,1006.00
2019-03-03T02:54:14.627Z,1006.03
2019-03-03T02:55:14.572Z,1005.99
2019-03-03T02:56:15.311Z,1005.97
2019-03-03T02:57:14.502Z,1005.94
2019-03-03T02:58:15.309Z,1005.99
2019-03-03T02:59:14.463Z,1005.95
2019-03-03T03:00:14.409Z,1005.94
2019-03-03T03:01:14.380Z,1005.86
2019-03-03T03:02:14.340Z,1005.85
2019-03-03T03:03:14.308Z,1005.88
2019-03-03T03:04:14.317Z,1005.88
2019-03-03T03:05:14.245Z,1005.87
2019-03-03T03:06:14.212Z,1005.82
2019-03-03T03:07:14.175Z,1005.79
2019-03-03T03:08:14.154Z,1005.74
2019-03-03T03:09:14.114Z,1005.81
2019-03-03T03:10:14.131Z,1005.75
2019-03-03T03:11:14.365Z,1005.74
2019-03-03T03:12:14.028Z,1005.72
2019-03-03T03:13:15.709Z,1005.70
2019-03-03T03:14:14.009Z,1005.74
2019-03-03T03:15:14.809Z,1005.68
2019-03-03T03:16:13.918Z,1005.68
2019-03-03T03:17:13.863Z,1005.69
2019-03-03T03:18:14.806Z,1005.61
2019-03-03T03:19:14.708Z,1005.61
2019-03-03T03:20:13.811Z,1005.62
2019-03-03T03:21:13.747Z,1005.61
2019-03-03T03:22:13.700Z,1005.56
2019-03-03T03:23:14.307Z,1005.53
2019-03-03T03:24:13.631Z,1005.48
2019-03-03T03:25:13.625Z,1005.51
2019-03-03T03:26:13.571Z,1005.50
2019-03-03T03:27:13.543Z,1005.48
2019-03-03T03:28:13.503Z,1005.47
2019-03-03T03:29:14.311Z,1005.40
2019-03-03T03:30:13.849Z,1005.41
2019-03-03T03:31:13.416Z,1005.41
2019-03-03T03:32:13.382Z,1005.44
2019-03-03T03:33:13.349Z,1005.46
2019-03-03T03:34:13.313Z,1005.40
2019-03-03T03:35:13.319Z,1005.40
2019-03-03T03:36:13.251Z,1005.36
2019-03-03T03:37:13.220Z,1005.35
2019-03-03T03:38:13.187Z,1005.34
2019-03-03T03:39:13.194Z,1005.32
2019-03-03T03:40:13.119Z,1005.34
2019-03-03T03:41:13.110Z,1005.31
2019-03-03T03:42:13.061Z,1005.29
2019-03-03T03:43:13.813Z,1005.32
2019-03-03T03:44:13.000Z,1005.35
2019-03-03T03:45:12.960Z,1005.32
2019-03-03T03:46:12.952Z,1005.29
2019-03-03T03:47:13.811Z,1005.27
2019-03-03T03:48:12.895Z,1005.26
2019-03-03T03:49:12.837Z,1005.20
2019-03-03T03:50:12.809Z,1005.23
2019-03-03T03:51:12.798Z,1005.23
2019-03-03T03:52:12.739Z,1005.17
2019-03-03T03:53:12.708Z,1005.20
2019-03-03T03:54:12.670Z,1005.18
2019-03-03T03:55:13.312Z,1005.20
2019-03-03T03:56:12.847Z,1005.11
2019-03-03T03:57:13.316Z,1005.10
2019-03-03T03:58:12.550Z,1005.04
2019-03-03T03:59:13.311Z,1005.05
2019-03-03T04:00:12.474Z,1005.02
2019-03-03T04:01:12.483Z,1005.00
2019-03-03T04:02:12.423Z,1004.92
2019-03-03T04:03:12.386Z,1004.90
2019-03-03T04:04:12.350Z,1004.87
2019-03-03T04:05:12.320Z,1004.88
2019-03-03T04:06:12.338Z,1004.89
2019-03-03T04:07:12.263Z,1004.87
2019-03-03T04:08:12.222Z,1004.88
2019-03-03T04:09:12.233Z,1004.84
2019-03-03T04:10:12.155Z,1004.83
2019-03-03T04:11:12.127Z,1004.83
2019-03-03T04:12:12.094Z,1004.81
2019-03-03T04:13:12.092Z,1004.89
2019-03-03T04:14:12.034Z,1004.86
2019-03-03T04:15:14.720Z,1004.84
2019-03-03T04:16:11.968Z,1004.80
2019-03-03T04:17:11.967Z,1004.83
2019-03-03T04:18:11.917Z,1004.83
2019-03-03T04:19:11.883Z,1004.82
2019-03-03T04:20:11.842Z,1004.79
2019-03-03T04:21:12.314Z,1004.79
2019-03-03T04:22:11.803Z,1004.73
2019-03-03T04:23:11.747Z,1004.67
2019-03-03T04:24:11.712Z,1004.63
2019-03-03T04:25:11.681Z,1004.61
2019-03-03T04:26:11.651Z,1004.65
2019-03-03T04:27:11.641Z,1004.65
2019-03-03T04:28:11.594Z,1004.67
2019-03-03T04:29:11.551Z,1004.69
2019-03-03T04:30:11.528Z,1004.70
2019-03-03T04:31:11.504Z,1004.67
2019-03-03T04:32:11.488Z,1004.64
2019-03-03T04:33:11.426Z,1004.62
2019-03-03T04:34:11.435Z,1004.65
2019-03-03T04:35:21.827Z,1004.70
2019-03-03T04:36:11.345Z,1004.69
2019-03-03T04:37:11.340Z,1004.66
2019-03-03T04:38:11.266Z,1004.64
2019-03-03T04:39:11.235Z,1004.68
2019-03-03T04:40:11.199Z,1004.58
2019-03-03T04:41:11.837Z,1004.59
2019-03-03T04:42:11.836Z,1004.56
2019-03-03T04:43:11.179Z,1004.59
2019-03-03T04:44:11.082Z,1004.59
2019-03-03T04:45:11.050Z,1004.56
2019-03-03T04:46:11.019Z,1004.59
2019-03-03T04:47:10.987Z,1004.59
2019-03-03T04:48:10.980Z,1004.63
2019-03-03T04:49:11.830Z,1004.59
2019-03-03T04:50:10.896Z,1004.59
2019-03-03T04:51:11.839Z,1004.56
2019-03-03T04:52:10.824Z,1004.53
2019-03-03T04:53:10.825Z,1004.52
2019-03-03T04:54:11.338Z,1004.52
2019-03-03T04:55:10.731Z,1004.51
2019-03-03T04:56:10.697Z,1004.49
2019-03-03T04:57:10.722Z,1004.52
2019-03-03T04:58:10.869Z,1004.46
2019-03-03T04:59:10.602Z,1004.54
2019-03-03T05:00:10.574Z,1004.53
2019-03-03T05:01:10.538Z,1004.52
2019-03-03T05:02:11.339Z,1004.59
2019-03-03T05:03:10.658Z,1004.58
2019-03-03T05:04:10.507Z,1004.56
2019-03-03T05:05:10.418Z,1004.52
2019-03-03T05:06:17.246Z,1004.56
2019-03-03T05:07:10.356Z,1004.51
2019-03-03T05:08:10.333Z,1004.56
2019-03-03T05:09:10.369Z,1004.52
2019-03-03T05:10:10.264Z,1004.59
2019-03-03T05:11:10.253Z,1004.57
2019-03-03T05:12:10.203Z,1004.56
2019-03-03T05:13:10.164Z,1004.53
2019-03-03T05:14:10.173Z,1004.47
2019-03-03T05:15:10.101Z,1004.47
2019-03-03T05:16:10.082Z,1004.45
2019-03-03T05:17:10.047Z,1004.35
2019-03-03T05:18:10.012Z,1004.32
2019-03-03T05:19:10.000Z,1004.30
2019-03-03T05:20:09.948Z,1004.25
2019-03-03T05:21:09.914Z,1004.23
2019-03-03T05:22:09.880Z,1004.21
2019-03-03T05:23:09.852Z,1004.20
2019-03-03T05:24:09.898Z,1004.21
2019-03-03T05:25:10.346Z,1004.22
2019-03-03T05:26:09.760Z,1004.26
2019-03-03T05:27:09.727Z,1004.23
2019-03-03T05:28:10.340Z,1004.26
2019-03-03T05:29:09.662Z,1004.20
2019-03-03T05:30:09.657Z,1004.18
2019-03-03T05:31:10.339Z,1004.19
2019-03-03T05:32:09.567Z,1004.17
2019-03-03T05:33:09.547Z,1004.16
2019-03-03T05:34:09.533Z,1004.13
2019-03-03T05:35:09.497Z,1004.13
2019-03-03T05:36:09.464Z,1004.14
2019-03-03T05:37:09.409Z,1004.13
2019-03-03T05:38:09.390Z,1004.13
2019-03-03T05:39:09.356Z,1004.12
2019-03-03T05:40:09.375Z,1004.09
2019-03-03T05:41:09.284Z,1004.10
2019-03-03T05:42:09.258Z,1004.09
2019-03-03T05:43:09.224Z,1004.04
2019-03-03T05:44:09.191Z,1004.02
2019-03-03T05:45:09.193Z,1003.99
2019-03-03T05:46:09.133Z,1003.99
2019-03-03T05:47:09.097Z,1004.00
2019-03-03T05:48:09.065Z,1004.02
2019-03-03T05:49:09.841Z,1004.00
2019-03-03T05:50:09.025Z,1004.01
2019-03-03T05:51:08.970Z,1004.01
2019-03-03T05:52:08.941Z,1004.02
2019-03-03T05:53:09.844Z,1004.02
2019-03-03T05:54:09.848Z,1004.03
2019-03-03T05:55:08.870Z,1004.07
2019-03-03T05:56:08.815Z,1004.05
2019-03-03T05:57:08.781Z,1004.07
2019-03-03T05:58:08.760Z,1004.03
2019-03-03T05:59:08.727Z,1003.96
2019-03-03T06:00:08.718Z,1003.89
2019-03-03T06:01:08.658Z,1003.93
2019-03-03T06:02:08.625Z,1003.91
2019-03-03T06:03:08.597Z,1003.88
2019-03-03T06:04:08.566Z,1003.88
2019-03-03T06:05:08.572Z,1003.88
2019-03-03T06:06:09.357Z,1003.92
2019-03-03T06:07:08.467Z,1003.88
2019-03-03T06:08:08.438Z,1003.84
2019-03-03T06:09:08.407Z,1003.84
2019-03-03T06:10:09.343Z,1003.85
2019-03-03T06:11:08.381Z,1003.80
2019-03-03T06:12:08.320Z,1003.82
2019-03-03T06:13:08.282Z,1003.82
2019-03-03T06:14:08.849Z,1003.83
2019-03-03T06:15:08.219Z,1003.77
2019-03-03T06:16:08.213Z,1003.79
2019-03-03T06:17:08.156Z,1003.82
2019-03-03T06:18:08.127Z,1003.78
2019-03-03T06:19:08.095Z,1003.77
2019-03-03T06:20:08.067Z,1003.74
2019-03-03T06:21:08.058Z,1003.72
2019-03-03T06:22:08.005Z,1003.71
2019-03-03T06:23:08.014Z,1003.76
2019-03-03T06:24:07.938Z,1003.71
2019-03-03T06:25:07.914Z,1003.73
2019-03-03T06:26:07.912Z,1003.75
2019-03-03T06:27:07.868Z,1003.81
2019-03-03T06:28:07.965Z,1003.75
2019-03-03T06:29:07.781Z,1003.73
2019-03-03T06:30:07.750Z,1003.71
2019-03-03T06:31:07.744Z,1003.75
2019-03-03T06:32:07.702Z,1003.73
2019-03-03T06:33:09.255Z,1003.70
2019-03-03T06:34:07.632Z,1003.77
2019-03-03T06:35:07.630Z,1003.70
2019-03-03T06:36:07.590Z,1003.64
2019-03-03T06:37:07.537Z,1003.61
2019-03-03T06:38:07.506Z,1003.58
2019-03-03T06:39:07.468Z,1003.59
2019-03-03T06:40:07.439Z,1003.60
2019-03-03T06:41:07.893Z,1003.59
2019-03-03T06:42:07.388Z,1003.63
2019-03-03T06:43:07.347Z,1003.59
2019-03-03T06:44:07.321Z,1003.56
2019-03-03T06:45:07.289Z,1003.54
2019-03-03T06:46:07.287Z,1003.55
2019-03-03T06:47:07.226Z,1003.50
2019-03-03T06:48:07.195Z,1003.54
2019-03-03T06:49:07.175Z,1003.53
2019-03-03T06:50:07.142Z,1003.62
2019-03-03T06:51:07.396Z,1003.66
2019-03-03T06:52:07.068Z,1003.64
2019-03-03T06:53:07.047Z,1003.58
2019-03-03T06:54:07.853Z,1003.61
2019-03-03T06:55:06.978Z,1003.59
2019-03-03T06:56:06.998Z,1003.53
2019-03-03T06:57:06.918Z,1003.54
2019-03-03T06:58:07.853Z,1003.54
2019-03-03T06:59:07.352Z,1003.58
2019-03-03T07:00:07.353Z,1003.58
2019-03-03T07:01:07.359Z,1003.56
2019-03-03T07:02:06.789Z,1003.51
2019-03-03T07:03:06.743Z,1003.51
2019-03-03T07:04:06.703Z,1003.48
2019-03-03T07:05:06.713Z,1003.48
2019-03-03T07:06:06.649Z,1003.47
2019-03-03T07:07:06.647Z,1003.40
2019-03-03T07:08:06.596Z,1003.38
2019-03-03T07:09:06.564Z,1003.40
2019-03-03T07:10:06.551Z,1003.41
2019-03-03T07:11:06.510Z,1003.44
2019-03-03T07:12:06.482Z,1003.37
2019-03-03T07:13:06.430Z,1003.37
2019-03-03T07:14:06.398Z,1003.35
2019-03-03T07:15:06.380Z,1003.36
2019-03-03T07:16:06.349Z,1003.37
2019-03-03T07:17:06.340Z,1003.36
2019-03-03T07:18:06.312Z,1003.34
2019-03-03T07:19:06.765Z,1003.32
2019-03-03T07:20:09.766Z,1003.34
2019-03-03T07:21:07.422Z,1003.37
2019-03-03T07:22:07.435Z,1003.35
2019-03-03T07:23:08.264Z,1003.36
2019-03-03T07:24:06.911Z,1003.36
2019-03-03T07:25:06.227Z,1003.40
2019-03-03T07:26:06.052Z,1003.40
2019-03-03T07:27:06.036Z,1003.39
2019-03-03T07:28:05.985Z,1003.41
2019-03-03T07:29:08.764Z,1003.38
2019-03-03T07:30:07.384Z,1003.36
2019-03-03T07:31:07.480Z,1003.30
2019-03-03T07:32:06.998Z,1003.37
2019-03-03T07:33:05.874Z,1003.37
2019-03-03T07:34:05.800Z,1003.34
2019-03-03T07:35:05.771Z,1003.37
2019-03-03T07:36:06.406Z,1003.26
2019-03-03T07:37:07.647Z,1003.33
2019-03-03T07:38:06.411Z,1003.25
2019-03-03T07:39:05.742Z,1003.30
2019-03-03T07:40:05.626Z,1003.36
2019-03-03T07:41:07.267Z,1003.31
2019-03-03T07:42:09.803Z,1003.32
2019-03-03T07:43:05.532Z,1003.31
2019-03-03T07:44:07.325Z,1003.32
2019-03-03T07:45:05.471Z,1003.29
2019-03-03T07:46:09.268Z,1003.18
2019-03-03T07:47:07.902Z,1003.30
2019-03-03T07:48:06.457Z,1003.28
2019-03-03T07:49:07.319Z,1003.31
2019-03-03T07:50:06.007Z,1003.30
2019-03-03T07:51:08.913Z,1003.25
2019-03-03T07:52:06.921Z,1003.29
2019-03-03T07:53:05.268Z,1003.33
2019-03-03T07:54:05.210Z,1003.25
2019-03-03T07:55:05.179Z,1003.25
2019-03-03T07:56:05.147Z,1003.22
2019-03-03T07:57:05.134Z,1003.22
2019-03-03T07:58:10.272Z,1003.32
2019-03-03T07:59:05.105Z,1003.17
2019-03-03T08:00:05.837Z,1003.14
2019-03-03T08:01:05.007Z,1003.17
2019-03-03T08:02:05.040Z,1003.25
2019-03-03T08:03:06.871Z,1003.24
2019-03-03T08:04:05.822Z,1003.23
2019-03-03T08:05:05.885Z,1003.25
2019-03-03T08:06:06.861Z,1003.18
2019-03-03T08:07:04.843Z,1003.14
2019-03-03T08:08:04.937Z,1003.17
2019-03-03T08:09:04.773Z,1003.15
2019-03-03T08:10:05.348Z,1003.08
2019-03-03T08:11:04.717Z,1003.01
2019-03-03T08:12:04.777Z,1003.04
2019-03-03T08:13:09.167Z,1003.14
2019-03-03T08:14:04.657Z,1003.08
2019-03-03T08:15:04.614Z,1003.22
2019-03-03T08:16:04.564Z,1003.15
2019-03-03T08:17:04.597Z,1003.10
2019-03-03T08:18:04.534Z,1003.11
2019-03-03T08:19:04.481Z,1003.08
2019-03-03T08:20:05.366Z,1003.10
2019-03-03T08:21:05.323Z,1003.11
2019-03-03T08:22:04.403Z,1003.03
2019-03-03T08:23:07.275Z,1003.11
2019-03-03T08:24:05.910Z,1002.96
2019-03-03T08:25:05.283Z,1003.07
2019-03-03T08:26:05.337Z,1002.99
2019-03-03T08:27:04.252Z,1003.03
2019-03-03T08:28:05.784Z,1002.96
2019-03-03T08:29:04.198Z,1003.00
2019-03-03T08:30:06.327Z,1002.97
2019-03-03T08:31:04.156Z,1003.09
2019-03-03T08:32:04.118Z,1003.09
2019-03-03T08:33:04.127Z,1003.05
2019-03-03T08:34:04.058Z,1003.05
2019-03-03T08:35:04.039Z,1003.09
2019-03-03T08:36:05.445Z,1003.11
2019-03-03T08:37:07.278Z,1003.12
2019-03-03T08:38:04.064Z,1003.18
2019-03-03T08:39:04.893Z,1003.14
2019-03-03T08:40:04.778Z,1003.11
2019-03-03T08:41:03.859Z,1003.10
2019-03-03T08:42:03.829Z,1003.07
2019-03-03T08:43:04.240Z,1003.03
2019-03-03T08:44:03.776Z,1003.07
2019-03-03T08:45:03.751Z,1002.94
2019-03-03T08:46:03.716Z,1003.01
2019-03-03T08:47:03.694Z,1002.99
2019-03-03T08:48:03.675Z,1002.99
2019-03-03T08:49:03.659Z,1003.03
2019-03-03T08:50:03.612Z,1003.05
2019-03-03T08:51:03.577Z,1003.01
2019-03-03T08:52:03.554Z,1002.97
2019-03-03T08:53:03.527Z,1003.05
2019-03-03T08:54:03.515Z,1003.04
2019-03-03T08:55:03.464Z,1002.95
2019-03-03T08:56:03.453Z,1003.05
2019-03-03T08:57:03.409Z,1002.94
2019-03-03T08:58:03.382Z,1002.97
2019-03-03T08:59:03.376Z,1002.93
2019-03-03T09:00:03.330Z,1002.97
2019-03-03T09:01:03.295Z,1003.08
2019-03-03T09:02:03.262Z,1003.15
2019-03-03T09:03:03.235Z,1003.13
2019-03-03T09:04:03.266Z,1003.08
2019-03-03T09:05:03.179Z,1003.08
2019-03-03T09:06:03.152Z,1002.99
2019-03-03T09:07:03.124Z,1003.03
2019-03-03T09:08:03.094Z,1002.92
2019-03-03T09:09:03.116Z,1003.01
2019-03-03T09:10:03.043Z,1003.11
2019-03-03T09:11:03.444Z,1003.11
2019-03-03T09:12:02.998Z,1003.10
2019-03-03T09:13:02.967Z,1003.08
2019-03-03T09:14:02.930Z,1003.01
2019-03-03T09:15:02.905Z,1003.02
2019-03-03T09:16:02.894Z,1002.97
2019-03-03T09:17:02.843Z,1003.08
2019-03-03T09:18:02.818Z,1002.98
2019-03-03T09:19:02.813Z,1003.05
2019-03-03T09:20:02.759Z,1002.99
2019-03-03T09:21:02.733Z,1003.03
2019-03-03T09:22:04.700Z,1002.99
2019-03-03T09:23:02.669Z,1003.01
2019-03-03T09:24:02.642Z,1002.93
2019-03-03T09:25:02.692Z,1003.00
2019-03-03T09:26:02.637Z,1002.95
2019-03-03T09:27:02.575Z,1003.01
2019-03-03T09:28:02.543Z,1003.04
2019-03-03T09:29:02.502Z,1002.99
2019-03-03T09:30:02.505Z,1003.03
2019-03-03T09:31:02.458Z,1003.02
2019-03-03T09:32:02.482Z,1003.09
2019-03-03T09:33:02.393Z,1002.99
2019-03-03T09:34:02.372Z,1002.99
2019-03-03T09:35:02.363Z,1003.01
2019-03-03T09:36:02.347Z,1002.97
2019-03-03T09:37:08.790Z,1002.91
2019-03-03T09:38:02.252Z,1003.00
2019-03-03T09:39:02.222Z,1003.02
2019-03-03T09:40:09.076Z,1002.98
2019-03-03T09:41:02.169Z,1003.05
2019-03-03T09:42:02.137Z,1003.07
2019-03-03T09:43:02.895Z,1003.11
2019-03-03T09:44:02.088Z,1003.15
2019-03-03T09:45:02.094Z,1003.08
2019-03-03T09:46:02.029Z,1003.10
2019-03-03T09:47:02.053Z,1003.16
2019-03-03T09:48:01.989Z,1003.16
2019-03-03T09:49:01.945Z,1003.26
2019-03-03T09:50:01.925Z,1003.19
2019-03-03T09:51:01.916Z,1003.11
2019-03-03T09:52:01.963Z,1003.13
2019-03-03T09:53:01.836Z,1003.14
2019-03-03T09:54:01.873Z,1003.18
2019-03-03T09:55:01.777Z,1003.16
2019-03-03T09:56:01.774Z,1003.14
2019-03-03T09:57:01.726Z,1003.13
2019-03-03T09:58:01.709Z,1003.14
2019-03-03T09:59:01.682Z,1003.15
2019-03-03T10:00:01.639Z,1003.06
2019-03-03T10:01:01.640Z,1003.07
2019-03-03T10:02:01.593Z,1003.07
2019-03-03T10:03:01.554Z,1003.16
2019-03-03T10:04:01.531Z,1003.07
2019-03-03T10:05:01.508Z,1003.04
2019-03-03T10:06:01.550Z,1003.16
2019-03-03T10:07:01.442Z,1003.17
2019-03-03T10:08:01.453Z,1003.24
2019-03-03T10:09:01.385Z,1003.18
2019-03-03T10:10:01.936Z,1003.18
2019-03-03T10:11:01.345Z,1003.19
2019-03-03T10:12:01.330Z,1003.06
2019-03-03T10:13:01.281Z,1003.07
2019-03-03T10:14:01.259Z,1003.05
2019-03-03T10:15:01.913Z,1003.12
2019-03-03T10:16:01.900Z,1003.16
2019-03-03T10:17:01.440Z,1003.25
2019-03-03T10:18:03.800Z,1003.23
2019-03-03T10:19:07.205Z,1003.27
2019-03-03T10:20:01.096Z,1003.26
2019-03-03T10:21:03.113Z,1003.26
2019-03-03T10:22:01.069Z,1003.28
2019-03-03T10:23:01.007Z,1003.33
2019-03-03T10:24:00.973Z,1003.23
2019-03-03T10:25:00.945Z,1003.27
2019-03-03T10:26:00.920Z,1003.28
2019-03-03T10:27:00.920Z,1003.32
2019-03-03T10:28:01.402Z,1003.32
2019-03-03T10:29:00.833Z,1003.31
2019-03-03T10:30:00.807Z,1003.23
2019-03-03T10:31:00.779Z,1003.25
2019-03-03T10:32:00.780Z,1003.28
2019-03-03T10:33:00.729Z,1003.27
2019-03-03T10:34:01.398Z,1003.22
2019-03-03T10:35:00.666Z,1003.22
2019-03-03T10:36:00.639Z,1003.20
2019-03-03T10:37:09.455Z,1003.26
2019-03-03T10:38:00.580Z,1003.25
2019-03-03T10:39:00.553Z,1003.26
2019-03-03T10:40:00.532Z,1003.23
2019-03-03T10:41:00.504Z,1003.24
2019-03-03T10:42:00.513Z,1003.22
2019-03-03T10:43:00.444Z,1003.23
2019-03-03T10:44:00.412Z,1003.22
2019-03-03T10:45:00.384Z,1003.27
2019-03-03T10:46:00.366Z,1003.23
2019-03-03T10:47:00.351Z,1003.24
2019-03-03T10:48:00.324Z,1003.27
2019-03-03T10:49:00.267Z,1003.27
2019-03-03T10:50:00.311Z,1003.23
2019-03-03T10:51:00.213Z,1003.24
2019-03-03T10:52:00.202Z,1003.26
2019-03-03T10:53:00.179Z,1003.13
2019-03-03T10:54:00.128Z,1003.16
2019-03-03T10:55:00.946Z,1003.10
2019-03-03T10:56:00.068Z,1002.98
2019-03-03T10:57:00.046Z,1003.07
2019-03-03T10:58:00.041Z,1003.09
2019-03-03T10:58:59.986Z,1003.08
2019-03-03T11:00:02.833Z,1003.17
2019-03-03T11:00:59.933Z,1003.05
2019-03-03T11:01:59.904Z,1003.11
2019-03-03T11:02:59.896Z,1003.15
2019-03-03T11:03:59.847Z,1003.14
2019-03-03T11:04:59.821Z,1003.20
2019-03-03T11:05:59.793Z,1003.18
2019-03-03T11:06:59.765Z,1003.13
2019-03-03T11:07:59.760Z,1003.16
2019-03-03T11:08:59.710Z,1003.08
2019-03-03T11:09:59.681Z,1003.04
2019-03-03T11:11:00.431Z,1003.14
2019-03-03T11:11:59.651Z,1003.13
2019-03-03T11:12:59.627Z,1003.14
2019-03-03T11:13:59.703Z,1003.14
2019-03-03T11:15:00.431Z,1003.10
2019-03-03T11:15:59.525Z,1003.15
2019-03-03T11:16:59.491Z,1003.12
2019-03-03T11:17:59.491Z,1003.13
2019-03-03T11:18:59.434Z,1003.11
2019-03-03T11:19:59.410Z,1003.13
2019-03-03T11:20:59.936Z,1003.09
2019-03-03T11:21:59.354Z,1003.09
2019-03-03T11:22:59.333Z,1003.07
2019-03-03T11:23:59.492Z,1003.15
2019-03-03T11:24:59.934Z,1003.21
2019-03-03T11:25:59.248Z,1003.11
2019-03-03T11:26:59.224Z,1003.15
2019-03-03T11:27:59.187Z,1003.16
2019-03-03T11:28:59.192Z,1003.11
2019-03-03T11:29:59.139Z,1003.08
2019-03-03T11:30:59.113Z,1003.09
2019-03-03T11:31:59.088Z,1003.24
2019-03-03T11:32:59.062Z,1003.07
2019-03-03T11:33:59.109Z,1003.10
2019-03-03T11:34:59.003Z,1003.12
2019-03-03T11:35:58.968Z,1003.10
2019-03-03T11:36:58.942Z,1003.09
2019-03-03T11:37:58.920Z,1003.11
2019-03-03T11:38:58.918Z,1003.06
2019-03-03T11:39:58.867Z,1003.07
2019-03-03T11:40:58.839Z,1003.10
2019-03-03T11:41:58.807Z,1003.07
2019-03-03T11:42:58.783Z,1003.05
2019-03-03T11:43:58.774Z,1003.15
2019-03-03T11:44:58.721Z,1003.15
2019-03-03T11:45:58.696Z,1003.07
2019-03-03T11:46:58.675Z,1003.10
2019-03-03T11:48:04.054Z,1003.03
2019-03-03T11:48:58.647Z,1003.15
2019-03-03T11:49:58.588Z,1003.10
2019-03-03T11:50:58.588Z,1003.11
2019-03-03T11:51:58.538Z,1003.06
2019-03-03T11:52:58.511Z,1003.08
2019-03-03T11:53:58.517Z,1003.07
2019-03-03T11:55:00.880Z,1003.13
2019-03-03T11:55:58.939Z,1003.05
2019-03-03T11:56:58.945Z,1003.06
2019-03-03T11:57:58.946Z,1003.07
2019-03-03T11:58:58.367Z,1003.05
2019-03-03T11:59:58.311Z,1003.10
2019-03-03T12:00:58.280Z,1003.06
2019-03-03T12:01:58.254Z,1003.07
2019-03-03T12:02:58.942Z,1003.03
2019-03-03T12:03:58.476Z,1003.03
2019-03-03T12:04:58.946Z,1003.09